Breckenridge, TX (76424)

5:07 AM CDT on September 28, 2016 (GMT -0500)
West Breckenridge | | Change Station

Elev 1263 ft 32.75 °N, 98.93 °W | Updated 59 seconds ago

Clear
Clear
52.7 °F
Feels Like 52.7 °F
N
0.3
Wind Variable Wind from WSW
Gusts 1.4 mph

Today
High -- | Low -- °F
--% Chance of Precip.
Yesterday
High -- | Low -- °F
Precip. -- in
Pressure 30.03 in
Visibility 10.0 miles
Clouds Clear
Dew Point 50 °F
Humidity 90%
Rainfall 0.00 in
Snow Depth Not available.
7:28 AM 7:23 PM
Waning Crescent, 6% visible
METAR KRPH 280950Z AUTO 00000KT 10SM CLR 10/10 A3003 RMK AO2 T01030103
Pressure 30.03 in
Visibility 10.0 miles
Clouds Clear
Dew Point 50 °F
Humidity 90%
Rainfall 0.00 in
Snow Depth Not available.
7:28 AM 7:23 PM
Waning Crescent, 6% visible
METAR KRPH 280950Z AUTO 00000KT 10SM CLR 10/10 A3003 RMK AO2 T01030103

10-Day Weather Forecast

Almanac

Astronomy

Sep. 28, 2016 Rise Set
Actual Time
Civil Twilight
Nautical Twilight
Astronomical Twilight
Moon
Length of Visible Light
Length of Day
Tomorrow will be .
, % of the Moon is Illuminated

Today's Extremes

State Highs State Lows

Community

WunderPhotos

Upload Photos

1,942,216 photos uploaded!

WunderBlog® & News

Nearby

Air Quality

  Air Quality AQ Index Pollutant
Not available.

Snow Depth

Station Depth Elevation

Earthquake Activity

City Distance Mag. Time & Date
Minimum magnitude displayed is 2.5.

Coastal Water Temperatures

Place Temperature

Stations

Nearby Weather Stations

Station Location Temp. Windchill Dew Point Humidity Wind Precip. Elev Updated Type
                   

Watches & Warnings

There are currently no watches in effect.